Aérodrome :
LOGIN :

S'inscrire | Disclaimer

   EN    FR    IT 

 










Légende :    VFR   VFR Marginal   IFR   IFR Intensif   IFR Très Intensif
Visi : 
Plafond : 
>= 8 km
>= 3000ft
5 à 8 km
1000 à 3000 ft
1500m à 5 km
500 à 1000 ft
800 à 1500m
200 à 500 ft
< 800m
< 200 ft
Symboles :   Orages  Brouillard  Fortes neiges  Fortes précipitations  Vent > 20 kt
SIGMETs :   Divers  Orages  Givrage  Turbulence  Onde Orograph.  Cendres Volcan.







- Altitude de l'aérodrome : 124 ft
- Code IATA : NHT
- Voir les cartes d'approche


EGWU - RAF Northolt

DERNIER METAR :
  • 191750Z 30001KT 9999 FEW040 11/07 Q1027 NOSIG

METARs EXPIRÉS :
  • 191650Z 34004KT 9999 FEW040 13/07 Q1027 BLU NOSIG
  • 191550Z 32002KT 9999 FEW040 16/06 Q1026 BLU NOSIG

TAF COR TAF EGWU
Valide du 19 à 18h jusqu'au 20 à 12h UTC


191726Z 1918/2012 VRB03KT 9999 FEW040
BECMG 1921/1924 5000 BR
BECMG 2000/2003 3000 BR MIFG
PROB30 2003/2007 0500 PRFG
BECMG 2007/2010 9999 NSW
Pas de NOTAMs connus pour ce terrain.
2 SIGMETs publiés pour la FIR London (EGTT) :
 
Turbulence forte
EGTT SIGMET 02 VALID 191900/192300 EGRR
EGTT LONDON FIR SEV TURB FCST WI N4941 W00337 - N5206 W00131 - N5500 W00201 - N5500 E00009 - N5226 E00019 - N4957 W00216 - N4941 W00337 FL250/390 MOV E 25KT WKN=
Turbulence forte
EGTT SIGMET 01 VALID 191600/191900 EGRR
EGTT LONDON FIR SEV TURB FCST WI N5346 W00133 - N5125 W00346 - N5500 W00501 - N5500 W00216 - N5346 W00133 FL250/400 MOV ESE 30KT WKN=



MET'MAP, la Météo Aéronautique d'un coup d'oeil ! - Copyright ORBIFLY Décembre 2007 - Disclaimer

ORBIFLY MET'MAP TEAM :

Programmation & Développement : Alexandra Zaïnal
Conception & Développement : Baudouin d'Aumeries
Co-Programmation & Développement : Marc-Olivier Méhu
Soutien technique & logistique : Manuel Goepfert

Contact : metmap@orbifly.com




SOURCES & CREDITS :

   NOAA